METAR Analyzer

一覧表示

Hello, Guest. (Login)

EDDF/FRA  -  フランクフルト

観測日時
2024-07-13 00:20 (UTC) (36分前)
気温
15
露点
11
湿数
4
相対湿度
77%
QNH
1013hPa
推定現地気圧
999.7hPa
推定海面気圧
1012.9hPa
体感温度
6
(無風時)
16.7
HI
14.6
気温前日比
-6
体感温度前日比
-7.7
HI前日比
-6.5
水平視程
>10000m
鉛直視程
データなし
雲底高度
No dense clouds
V/I
VMC (VFR)
RVR
No RVR data
卓越風
9kt from 290°
ガスト
No gust
降水
報告なし
その他の天気
報告なし
報告なし

EDDF 130020Z AUTO 29009KT CAVOK 15/11 Q1013 NOSIG

[PR]

EDDM/MUC  -  ミュンヘン

観測日時
2024-07-13 00:20 (UTC) (36分前)
気温
16
露点
15
湿数
1
相対湿度
93.8%
QNH
1013hPa
推定現地気圧
959.7hPa
推定海面気圧
1012.2hPa
体感温度
10.1
(無風時)
17.9
HI
16.1
気温前日比
-3
体感温度前日比
-5.7
HI前日比
-3.3
水平視程
>10000m
鉛直視程
データなし
雲底高度
No dense clouds
V/I
VMC (VFR)
RVR
No RVR data
卓越風
4kt from 210°
ガスト
No gust
降水
報告なし
降水 (一時)
中程度のしゅう雨性の雨
その他の天気
報告なし
報告なし

EDDM 130020Z AUTO 21004KT CAVOK 16/15 Q1013 RESHRA TEMPO SHRA SCT030TCU

[PR]

EDDL/DUS  -  デュッセルドルフ

観測日時
2024-07-13 00:20 (UTC) (36分前)
気温
14
露点
12
湿数
2
相対湿度
87.7%
QNH
1012hPa
推定現地気圧
1006.6hPa
推定海面気圧
1012.0hPa
体感温度
4.5
(無風時)
16.1
HI
13.7
気温前日比
-3
体感温度前日比
-6.7
HI前日比
-3.1
水平視程
>10000m
鉛直視程
データなし
雲底高度
4900ft AGL / 一時 1400ft AGL
V/I
VMC (VFR)
RVR
No RVR data
卓越風
9kt from 230°
ガスト
No gust
降水
報告なし
その他の天気
報告なし
散在する雲 @ 1300ft AGL / 隙間のある雲 @ 4900ft AGL

EDDL 130020Z AUTO 23009KT 9999 SCT013 BKN049 14/12 Q1012 TEMPO BKN014

[PR]

LFPG/CDG  -  パリ=シャルル・ド・ゴール

観測日時
2024-07-13 00:30 (UTC) (26分前)
気温
14
露点
12
湿数
2
相対湿度
87.7%
QNH
1015hPa
推定現地気圧
1000.8hPa
推定海面気圧
1015.1hPa
体感温度
16.1
(無風時)
16.1
HI
13.7
気温前日比
-2
体感温度前日比
+8.9
HI前日比
-2.4
水平視程
>10000m
鉛直視程
データなし
雲底高度
11000ft AGL
V/I
VMC (VFR)
RVR
No RVR data
卓越風
静穏
ガスト
No gust
降水
報告なし
その他の天気
報告なし
少しの雲 @ 3000ft AGL / 隙間のある雲 @ 11000ft AGL / 隙間のある雲 @ 13000ft AGL

LFPG 130030Z 00000KT 9999 FEW030 BKN110 BKN130 14/12 Q1015 NOSIG

[PR]

EGLL/LHR  -  ロンドン・ヒースロー

観測日時
2024-07-13 00:20 (UTC) (36分前)
気温
14
露点
7
湿数
7
相対湿度
62.7%
QNH
1016hPa
推定現地気圧
1013.0hPa
推定海面気圧
1016.0hPa
体感温度
8.8
(無風時)
15.7
HI
13.1
気温前日比
-1
体感温度前日比
+2.8
HI前日比
-1.6
水平視程
>10000m
鉛直視程
データなし
雲底高度
4500ft AGL
V/I
VMC (VFR)
RVR
No RVR data
卓越風
3kt from 310° (270° ~ 350°)
ガスト
No gust
降水
報告なし
その他の天気
報告なし
散在する雲 @ 3700ft AGL / 隙間のある雲 @ 4500ft AGL

EGLL 130020Z AUTO 31003KT 270V350 9999 SCT037 BKN045 14/07 Q1016 NOSIG

[PR]
26.9msec